sensor_id;sensor_type;location;lat;lon;timestamp;pressure;altitude;pressure_sealevel;temperature;humidity
79671;BME280;69137;50.878;8.050;2023-09-30T00:01:22;99162.91;;;12.77;89.22
79671;BME280;69137;50.878;8.050;2023-09-30T00:03:47;99162.06;;;12.71;89.59
79671;BME280;69137;50.878;8.050;2023-09-30T00:06:13;99163.41;;;12.74;89.47
79671;BME280;69137;50.878;8.050;2023-09-30T00:08:38;99166.16;;;12.74;88.95
79671;BME280;69137;50.878;8.050;2023-09-30T00:11:05;99162.56;;;12.68;89.25
79671;BME280;69137;50.878;8.050;2023-09-30T00:13:31;99165.25;;;12.63;89.03
79671;BME280;69137;50.878;8.050;2023-09-30T00:15:57;99170.38;;;12.54;89.31
79671;BME280;69137;50.878;8.050;2023-09-30T00:18:22;99182.94;;;12.50;89.33
79671;BME280;69137;50.878;8.050;2023-09-30T00:20:48;99190.25;;;12.39;89.47
79671;BME280;69137;50.878;8.050;2023-09-30T00:23:13;99176.28;;;12.41;89.85
79671;BME280;69137;50.878;8.050;2023-09-30T00:25:39;99182.19;;;12.28;90.19
79671;BME280;69137;50.878;8.050;2023-09-30T00:28:04;99184.81;;;12.17;90.44
79671;BME280;69137;50.878;8.050;2023-09-30T00:30:30;99189.38;;;12.07;90.77
79671;BME280;69137;50.878;8.050;2023-09-30T00:32:55;99190.75;;;12.09;90.57
79671;BME280;69137;50.878;8.050;2023-09-30T00:35:21;99190.19;;;12.07;90.67
79671;BME280;69137;50.878;8.050;2023-09-30T00:37:46;99186.75;;;11.95;90.65
79671;BME280;69137;50.878;8.050;2023-09-30T00:40:12;99192.97;;;11.90;91.62
79671;BME280;69137;50.878;8.050;2023-09-30T00:42:38;99196.97;;;11.82;91.74
79671;BME280;69137;50.878;8.050;2023-09-30T00:45:05;99206.50;;;11.80;91.49
79671;BME280;69137;50.878;8.050;2023-09-30T00:47:31;99200.22;;;11.79;91.60
79671;BME280;69137;50.878;8.050;2023-09-30T00:49:57;99220.97;;;11.75;91.47
79671;BME280;69137;50.878;8.050;2023-09-30T00:52:22;99217.59;;;11.68;91.32
79671;BME280;69137;50.878;8.050;2023-09-30T00:54:49;99230.31;;;11.57;91.54
79671;BME280;69137;50.878;8.050;2023-09-30T00:57:16;99221.91;;;11.64;92.09
79671;BME280;69137;50.878;8.050;2023-09-30T00:59:44;99210.78;;;11.71;91.44
79671;BME280;69137;50.878;8.050;2023-09-30T01:02:09;99217.81;;;11.84;90.25
79671;BME280;69137;50.878;8.050;2023-09-30T01:04:35;99221.59;;;11.61;90.54
79671;BME280;69137;50.878;8.050;2023-09-30T01:07:00;99219.38;;;11.57;91.56
79671;BME280;69137;50.878;8.050;2023-09-30T01:09:25;99220.88;;;11.48;91.12
79671;BME280;69137;50.878;8.050;2023-09-30T01:11:51;99215.09;;;11.45;91.47
79671;BME280;69137;50.878;8.050;2023-09-30T01:14:30;99198.00;;;11.54;90.74
79671;BME280;69137;50.878;8.050;2023-09-30T01:16:56;99207.34;;;11.58;90.74
79671;BME280;69137;50.878;8.050;2023-09-30T01:19:22;99202.16;;;11.62;90.38
79671;BME280;69137;50.878;8.050;2023-09-30T01:21:54;99183.28;;;11.61;90.84
79671;BME280;69137;50.878;8.050;2023-09-30T01:24:21;99193.91;;;11.57;90.32
79671;BME280;69137;50.878;8.050;2023-09-30T01:26:47;99200.38;;;11.51;90.35
79671;BME280;69137;50.878;8.050;2023-09-30T01:29:13;99212.50;;;11.38;91.46
79671;BME280;69137;50.878;8.050;2023-09-30T01:31:39;99215.84;;;11.40;91.21
79671;BME280;69137;50.878;8.050;2023-09-30T01:34:05;99232.84;;;11.42;90.64
79671;BME280;69137;50.878;8.050;2023-09-30T01:36:31;99217.69;;;11.34;90.52
79671;BME280;69137;50.878;8.050;2023-09-30T01:38:57;99207.31;;;11.36;90.56
79671;BME280;69137;50.878;8.050;2023-09-30T01:41:22;99217.47;;;11.41;90.24
79671;BME280;69137;50.878;8.050;2023-09-30T01:43:48;99219.00;;;11.32;90.91
79671;BME280;69137;50.878;8.050;2023-09-30T01:46:14;99231.78;;;11.26;91.60
79671;BME280;69137;50.878;8.050;2023-09-30T01:48:39;99236.41;;;11.26;90.71
79671;BME280;69137;50.878;8.050;2023-09-30T01:51:05;99251.00;;;11.14;91.56
79671;BME280;69137;50.878;8.050;2023-09-30T01:53:31;99257.88;;;11.17;92.15
79671;BME280;69137;50.878;8.050;2023-09-30T01:55:57;99261.78;;;11.21;91.35
79671;BME280;69137;50.878;8.050;2023-09-30T01:58:22;99252.31;;;11.12;91.86
79671;BME280;69137;50.878;8.050;2023-09-30T02:00:48;99222.97;;;11.07;92.36
79671;BME280;69137;50.878;8.050;2023-09-30T02:03:13;99206.00;;;11.22;91.96
79671;BME280;69137;50.878;8.050;2023-09-30T02:05:39;99213.34;;;11.38;90.82
79671;BME280;69137;50.878;8.050;2023-09-30T02:08:05;99225.06;;;11.34;91.13
79671;BME280;69137;50.878;8.050;2023-09-30T02:10:32;99228.31;;;11.14;91.84
79671;BME280;69137;50.878;8.050;2023-09-30T02:13:00;99234.44;;;11.04;91.69
79671;BME280;69137;50.878;8.050;2023-09-30T02:15:26;99252.16;;;11.02;91.74
79671;BME280;69137;50.878;8.050;2023-09-30T02:17:51;99246.53;;;11.08;92.05
79671;BME280;69137;50.878;8.050;2023-09-30T02:20:17;99241.47;;;11.17;91.98
79671;BME280;69137;50.878;8.050;2023-09-30T02:22:51;99237.09;;;11.16;91.86
79671;BME280;69137;50.878;8.050;2023-09-30T02:25:17;99237.72;;;11.23;91.52
79671;BME280;69137;50.878;8.050;2023-09-30T02:27:43;99231.78;;;11.09;91.88
79671;BME280;69137;50.878;8.050;2023-09-30T02:30:09;99231.03;;;11.14;91.93
79671;BME280;69137;50.878;8.050;2023-09-30T02:32:38;99247.94;;;11.11;91.84
79671;BME280;69137;50.878;8.050;2023-09-30T02:35:04;99252.31;;;11.12;91.78
79671;BME280;69137;50.878;8.050;2023-09-30T02:37:35;99254.00;;;11.13;91.55
79671;BME280;69137;50.878;8.050;2023-09-30T02:40:05;99254.13;;;11.23;90.94
79671;BME280;69137;50.878;8.050;2023-09-30T02:42:37;99261.09;;;11.31;89.98
79671;BME280;69137;50.878;8.050;2023-09-30T02:45:04;99259.06;;;11.21;90.21
79671;BME280;69137;50.878;8.050;2023-09-30T02:47:31;99260.28;;;11.13;90.02
79671;BME280;69137;50.878;8.050;2023-09-30T02:49:57;99256.88;;;11.06;90.00
79671;BME280;69137;50.878;8.050;2023-09-30T02:52:24;99258.94;;;10.99;90.07
79671;BME280;69137;50.878;8.050;2023-09-30T02:54:49;99262.09;;;10.91;89.57
79671;BME280;69137;50.878;8.050;2023-09-30T02:57:15;99241.41;;;10.95;88.59
79671;BME280;69137;50.878;8.050;2023-09-30T02:59:41;99244.88;;;10.90;89.34
79671;BME280;69137;50.878;8.050;2023-09-30T03:02:06;99242.38;;;10.89;90.17
79671;BME280;69137;50.878;8.050;2023-09-30T03:04:32;99233.84;;;10.85;89.18
79671;BME280;69137;50.878;8.050;2023-09-30T03:06:58;99241.28;;;10.73;88.93
79671;BME280;69137;50.878;8.050;2023-09-30T03:09:23;99263.06;;;10.68;89.06
79671;BME280;69137;50.878;8.050;2023-09-30T03:11:49;99263.31;;;10.66;89.36
79671;BME280;69137;50.878;8.050;2023-09-30T03:14:15;99276.41;;;10.64;89.69
79671;BME280;69137;50.878;8.050;2023-09-30T03:16:40;99262.00;;;10.69;89.53
79671;BME280;69137;50.878;8.050;2023-09-30T03:19:06;99271.25;;;10.68;89.78
79671;BME280;69137;50.878;8.050;2023-09-30T03:21:36;99269.06;;;10.53;89.52
79671;BME280;69137;50.878;8.050;2023-09-30T03:24:04;99273.97;;;10.51;89.31
79671;BME280;69137;50.878;8.050;2023-09-30T03:26:31;99280.88;;;10.42;89.36
79671;BME280;69137;50.878;8.050;2023-09-30T03:28:56;99276.97;;;10.26;89.66
79671;BME280;69137;50.878;8.050;2023-09-30T03:31:22;99264.66;;;10.23;90.27
79671;BME280;69137;50.878;8.050;2023-09-30T03:33:49;99266.06;;;10.26;90.62
79671;BME280;69137;50.878;8.050;2023-09-30T03:36:16;99267.72;;;10.27;90.57
79671;BME280;69137;50.878;8.050;2023-09-30T03:38:42;99266.16;;;10.43;89.30
79671;BME280;69137;50.878;8.050;2023-09-30T03:41:07;99281.69;;;10.42;88.65
79671;BME280;69137;50.878;8.050;2023-09-30T03:43:34;99264.09;;;10.50;88.89
79671;BME280;69137;50.878;8.050;2023-09-30T03:46:02;99264.34;;;10.48;89.37
79671;BME280;69137;50.878;8.050;2023-09-30T03:48:28;99257.66;;;10.56;89.23
79671;BME280;69137;50.878;8.050;2023-09-30T03:50:53;99255.50;;;10.58;89.13
79671;BME280;69137;50.878;8.050;2023-09-30T03:53:19;99268.91;;;10.60;89.18
79671;BME280;69137;50.878;8.050;2023-09-30T03:55:45;99273.22;;;10.56;89.42
79671;BME280;69137;50.878;8.050;2023-09-30T03:58:10;99273.22;;;10.56;89.48
79671;BME280;69137;50.878;8.050;2023-09-30T04:00:37;99281.91;;;10.53;89.67
79671;BME280;69137;50.878;8.050;2023-09-30T04:03:04;99284.72;;;10.58;89.69
79671;BME280;69137;50.878;8.050;2023-09-30T04:05:29;99284.13;;;10.56;89.23
79671;BME280;69137;50.878;8.050;2023-09-30T04:07:57;99289.03;;;10.54;89.87
79671;BME280;69137;50.878;8.050;2023-09-30T04:10:22;99291.88;;;10.59;89.36
79671;BME280;69137;50.878;8.050;2023-09-30T04:12:48;99295.16;;;10.61;89.80
79671;BME280;69137;50.878;8.050;2023-09-30T04:15:13;99298.50;;;10.63;90.03
79671;BME280;69137;50.878;8.050;2023-09-30T04:17:39;99294.41;;;10.77;90.06
79671;BME280;69137;50.878;8.050;2023-09-30T04:20:08;99292.16;;;10.74;90.00
79671;BME280;69137;50.878;8.050;2023-09-30T04:22:35;99290.06;;;10.64;90.58
79671;BME280;69137;50.878;8.050;2023-09-30T04:25:01;99280.94;;;10.59;91.82
79671;BME280;69137;50.878;8.050;2023-09-30T04:27:31;99276.34;;;10.47;92.41
79671;BME280;69137;50.878;8.050;2023-09-30T04:29:56;99282.66;;;10.48;92.76
79671;BME280;69137;50.878;8.050;2023-09-30T04:32:22;99278.66;;;10.56;92.75
79671;BME280;69137;50.878;8.050;2023-09-30T04:34:47;99278.44;;;10.57;92.83
79671;BME280;69137;50.878;8.050;2023-09-30T04:37:13;99275.94;;;10.56;92.75
79671;BME280;69137;50.878;8.050;2023-09-30T04:39:39;99282.59;;;10.60;92.58
79671;BME280;69137;50.878;8.050;2023-09-30T04:42:04;99278.41;;;10.69;92.42
79671;BME280;69137;50.878;8.050;2023-09-30T04:44:30;99277.63;;;10.74;92.41
79671;BME280;69137;50.878;8.050;2023-09-30T04:46:57;99275.50;;;10.76;92.10
79671;BME280;69137;50.878;8.050;2023-09-30T04:49:22;99288.94;;;10.77;92.04
79671;BME280;69137;50.878;8.050;2023-09-30T04:51:48;99282.63;;;10.77;91.82
79671;BME280;69137;50.878;8.050;2023-09-30T04:54:14;99293.81;;;10.75;92.40
79671;BME280;69137;50.878;8.050;2023-09-30T04:56:39;99279.06;;;10.76;92.59
79671;BME280;69137;50.878;8.050;2023-09-30T04:59:05;99284.09;;;10.67;92.38
79671;BME280;69137;50.878;8.050;2023-09-30T05:01:31;99284.09;;;10.67;92.61
79671;BME280;69137;50.878;8.050;2023-09-30T05:03:57;99298.94;;;10.71;92.31
79671;BME280;69137;50.878;8.050;2023-09-30T05:06:22;99296.00;;;10.61;93.07
79671;BME280;69137;50.878;8.050;2023-09-30T05:08:48;99302.41;;;10.67;92.93
79671;BME280;69137;50.878;8.050;2023-09-30T05:11:14;99301.22;;;10.63;92.51
79671;BME280;69137;50.878;8.050;2023-09-30T05:13:40;99313.47;;;10.60;92.57
79671;BME280;69137;50.878;8.050;2023-09-30T05:16:05;99304.78;;;10.63;93.18
79671;BME280;69137;50.878;8.050;2023-09-30T05:18:33;99312.34;;;10.73;92.46
79671;BME280;69137;50.878;8.050;2023-09-30T05:20:58;99318.69;;;10.62;92.58
79671;BME280;69137;50.878;8.050;2023-09-30T05:23:24;99320.13;;;10.64;92.52
79671;BME280;69137;50.878;8.050;2023-09-30T05:25:50;99318.25;;;10.53;92.58
79671;BME280;69137;50.878;8.050;2023-09-30T05:28:16;99315.19;;;10.49;92.94
79671;BME280;69137;50.878;8.050;2023-09-30T05:30:41;99313.03;;;10.52;93.09
79671;BME280;69137;50.878;8.050;2023-09-30T05:33:08;99305.81;;;10.45;92.67
79671;BME280;69137;50.878;8.050;2023-09-30T05:35:38;99315.94;;;10.33;93.86
79671;BME280;69137;50.878;8.050;2023-09-30T05:38:07;99319.16;;;10.30;94.25
79671;BME280;69137;50.878;8.050;2023-09-30T05:40:32;99318.19;;;10.36;94.30
79671;BME280;69137;50.878;8.050;2023-09-30T05:42:58;99325.31;;;10.37;94.00
79671;BME280;69137;50.878;8.050;2023-09-30T05:45:24;99333.03;;;10.40;93.37
79671;BME280;69137;50.878;8.050;2023-09-30T05:47:52;99338.69;;;10.50;93.76
79671;BME280;69137;50.878;8.050;2023-09-30T05:50:18;99341.56;;;10.44;93.60
79671;BME280;69137;50.878;8.050;2023-09-30T05:52:49;99339.44;;;10.34;93.58
79671;BME280;69137;50.878;8.050;2023-09-30T05:55:16;99345.16;;;10.33;94.25
79671;BME280;69137;50.878;8.050;2023-09-30T05:57:45;99340.78;;;10.20;94.21
79671;BME280;69137;50.878;8.050;2023-09-30T06:00:12;99349.44;;;10.28;94.23
79671;BME280;69137;50.878;8.050;2023-09-30T06:02:47;99348.97;;;10.20;94.25
79671;BME280;69137;50.878;8.050;2023-09-30T06:05:12;99351.94;;;10.30;94.31
79671;BME280;69137;50.878;8.050;2023-09-30T06:07:40;99361.19;;;10.29;94.56
79671;BME280;69137;50.878;8.050;2023-09-30T06:10:06;99344.09;;;10.34;94.18
79671;BME280;69137;50.878;8.050;2023-09-30T06:12:34;99355.59;;;10.24;94.20
79671;BME280;69137;50.878;8.050;2023-09-30T06:15:01;99352.19;;;10.28;93.96
79671;BME280;69137;50.878;8.050;2023-09-30T06:17:27;99353.94;;;10.35;93.40
79671;BME280;69137;50.878;8.050;2023-09-30T06:19:52;99361.78;;;10.31;93.01
79671;BME280;69137;50.878;8.050;2023-09-30T06:22:18;99366.44;;;10.31;92.89
79671;BME280;69137;50.878;8.050;2023-09-30T06:24:43;99356.66;;;10.23;92.78
79671;BME280;69137;50.878;8.050;2023-09-30T06:27:09;99356.56;;;10.30;92.89
79671;BME280;69137;50.878;8.050;2023-09-30T06:29:38;99367.09;;;10.26;93.16
79671;BME280;69137;50.878;8.050;2023-09-30T06:32:03;99363.91;;;10.29;92.51
79671;BME280;69137;50.878;8.050;2023-09-30T06:34:29;99363.44;;;10.32;92.89
79671;BME280;69137;50.878;8.050;2023-09-30T06:36:55;99362.63;;;10.32;92.49
79671;BME280;69137;50.878;8.050;2023-09-30T06:39:20;99364.03;;;10.34;92.34
79671;BME280;69137;50.878;8.050;2023-09-30T06:41:46;99369.97;;;10.43;91.88
79671;BME280;69137;50.878;8.050;2023-09-30T06:44:11;99354.28;;;10.38;91.84
79671;BME280;69137;50.878;8.050;2023-09-30T06:46:38;99368.16;;;10.48;91.40
79671;BME280;69137;50.878;8.050;2023-09-30T06:49:04;99368.88;;;10.44;91.66
79671;BME280;69137;50.878;8.050;2023-09-30T06:51:30;99368.66;;;10.45;92.11
79671;BME280;69137;50.878;8.050;2023-09-30T06:53:56;99377.69;;;10.46;92.18
79671;BME280;69137;50.878;8.050;2023-09-30T06:56:21;99379.44;;;10.52;92.06
79671;BME280;69137;50.878;8.050;2023-09-30T06:58:46;99386.47;;;10.48;92.08
79671;BME280;69137;50.878;8.050;2023-09-30T07:01:15;99388.22;;;10.54;92.12
79671;BME280;69137;50.878;8.050;2023-09-30T07:03:42;99380.84;;;10.55;92.35
79671;BME280;69137;50.878;8.050;2023-09-30T07:06:07;99380.13;;;10.59;91.82
79671;BME280;69137;50.878;8.050;2023-09-30T07:08:33;99378.50;;;10.46;91.83
79671;BME280;69137;50.878;8.050;2023-09-30T07:10:58;99390.59;;;10.50;91.56
79671;BME280;69137;50.878;8.050;2023-09-30T07:13:25;99390.03;;;10.48;92.12
79671;BME280;69137;50.878;8.050;2023-09-30T07:15:50;99387.28;;;10.48;92.62
79671;BME280;69137;50.878;8.050;2023-09-30T07:18:16;99385.97;;;10.51;92.53
79671;BME280;69137;50.878;8.050;2023-09-30T07:20:42;99391.28;;;10.58;92.07
79671;BME280;69137;50.878;8.050;2023-09-30T07:23:07;99396.38;;;10.66;92.60
79671;BME280;69137;50.878;8.050;2023-09-30T07:25:34;99399.81;;;10.73;92.85
79671;BME280;69137;50.878;8.050;2023-09-30T07:28:00;99406.47;;;10.77;92.73
79671;BME280;69137;50.878;8.050;2023-09-30T07:30:26;99405.25;;;10.85;92.73
79671;BME280;69137;50.878;8.050;2023-09-30T07:32:52;99406.50;;;10.94;91.45
79671;BME280;69137;50.878;8.050;2023-09-30T07:35:17;99406.28;;;10.96;91.21
79671;BME280;69137;50.878;8.050;2023-09-30T07:37:43;99409.72;;;10.91;92.32
79671;BME280;69137;50.878;8.050;2023-09-30T07:40:09;99403.88;;;10.99;91.73
79671;BME280;69137;50.878;8.050;2023-09-30T07:42:38;99394.69;;;11.05;91.92
79671;BME280;69137;50.878;8.050;2023-09-30T07:45:04;99403.19;;;11.21;90.84
79671;BME280;69137;50.878;8.050;2023-09-30T07:47:30;99400.00;;;11.12;91.10
79671;BME280;69137;50.878;8.050;2023-09-30T07:50:00;99408.63;;;10.92;91.06
79671;BME280;69137;50.878;8.050;2023-09-30T07:52:25;99410.81;;;10.90;90.69
79671;BME280;69137;50.878;8.050;2023-09-30T07:54:51;99407.72;;;10.86;91.03
79671;BME280;69137;50.878;8.050;2023-09-30T07:57:16;99406.41;;;10.89;90.91
79671;BME280;69137;50.878;8.050;2023-09-30T07:59:42;99403.44;;;10.90;91.58
79671;BME280;69137;50.878;8.050;2023-09-30T08:02:07;99409.59;;;10.98;90.66
79671;BME280;69137;50.878;8.050;2023-09-30T08:04:33;99421.88;;;10.83;92.44
79671;BME280;69137;50.878;8.050;2023-09-30T08:06:59;99425.63;;;10.94;91.80
79671;BME280;69137;50.878;8.050;2023-09-30T08:09:24;99427.06;;;10.97;91.54
79671;BME280;69137;50.878;8.050;2023-09-30T08:11:50;99432.41;;;11.03;91.24
79671;BME280;69137;50.878;8.050;2023-09-30T08:14:17;99431.28;;;11.16;90.67
79671;BME280;69137;50.878;8.050;2023-09-30T08:16:43;99434.44;;;11.25;90.33
79671;BME280;69137;50.878;8.050;2023-09-30T08:19:09;99433.34;;;11.26;89.32
79671;BME280;69137;50.878;8.050;2023-09-30T08:21:34;99441.66;;;11.31;90.31
79671;BME280;69137;50.878;8.050;2023-09-30T08:24:01;99439.41;;;11.28;90.10
79671;BME280;69137;50.878;8.050;2023-09-30T08:26:27;99445.44;;;11.42;88.72
79671;BME280;69137;50.878;8.050;2023-09-30T08:28:52;99441.84;;;11.41;89.63
79671;BME280;69137;50.878;8.050;2023-09-30T08:31:18;99447.41;;;11.46;89.35
79671;BME280;69137;50.878;8.050;2023-09-30T08:33:44;99440.69;;;11.54;89.02
79671;BME280;69137;50.878;8.050;2023-09-30T08:36:11;99439.38;;;11.56;89.00
79671;BME280;69137;50.878;8.050;2023-09-30T08:38:38;99442.56;;;11.65;88.26
79671;BME280;69137;50.878;8.050;2023-09-30T08:41:04;99455.69;;;11.51;89.35
79671;BME280;69137;50.878;8.050;2023-09-30T08:43:30;99455.91;;;11.33;91.46
79671;BME280;69137;50.878;8.050;2023-09-30T08:45:58;99451.09;;;11.52;90.41
79671;BME280;69137;50.878;8.050;2023-09-30T08:48:26;99451.59;;;11.66;88.81
79671;BME280;69137;50.878;8.050;2023-09-30T08:50:55;99458.13;;;11.65;88.87
79671;BME280;69137;50.878;8.050;2023-09-30T08:53:22;99467.09;;;11.77;88.75
79671;BME280;69137;50.878;8.050;2023-09-30T08:55:48;99467.53;;;11.86;88.36
79671;BME280;69137;50.878;8.050;2023-09-30T08:58:18;99475.16;;;11.84;87.71
79671;BME280;69137;50.878;8.050;2023-09-30T09:00:44;99477.44;;;11.58;90.36
79671;BME280;69137;50.878;8.050;2023-09-30T09:03:10;99486.72;;;11.86;88.64
79671;BME280;69137;50.878;8.050;2023-09-30T09:05:36;99476.44;;;12.10;88.04
79671;BME280;69137;50.878;8.050;2023-09-30T09:08:01;99476.25;;;12.16;86.75
79671;BME280;69137;50.878;8.050;2023-09-30T09:10:26;99479.16;;;12.27;86.58
79671;BME280;69137;50.878;8.050;2023-09-30T09:12:56;99479.22;;;12.32;85.98
79671;BME280;69137;50.878;8.050;2023-09-30T09:15:27;99478.78;;;12.40;85.82
79671;BME280;69137;50.878;8.050;2023-09-30T09:17:54;99482.13;;;12.42;85.33
79671;BME280;69137;50.878;8.050;2023-09-30T09:20:24;99471.22;;;12.47;84.29
79671;BME280;69137;50.878;8.050;2023-09-30T09:22:55;99484.66;;;12.65;84.14
79671;BME280;69137;50.878;8.050;2023-09-30T09:25:24;99483.59;;;12.88;83.50
79671;BME280;69137;50.878;8.050;2023-09-30T09:27:53;99485.19;;;13.06;83.71
79671;BME280;69137;50.878;8.050;2023-09-30T09:32:52;99492.88;;;13.09;81.64
79671;BME280;69137;50.878;8.050;2023-09-30T09:35:21;99475.75;;;12.97;82.83
79671;BME280;69137;50.878;8.050;2023-09-30T09:37:57;99470.91;;;12.82;82.85
79671;BME280;69137;50.878;8.050;2023-09-30T09:40:25;99459.91;;;13.04;83.18
79671;BME280;69137;50.878;8.050;2023-09-30T09:42:51;99449.44;;;13.23;82.32
79671;BME280;69137;50.878;8.050;2023-09-30T09:45:21;99457.19;;;13.26;81.32
79671;BME280;69137;50.878;8.050;2023-09-30T09:47:48;99448.94;;;13.26;83.56
79671;BME280;69137;50.878;8.050;2023-09-30T09:50:13;99435.16;;;13.75;80.82
79671;BME280;69137;50.878;8.050;2023-09-30T09:52:41;99441.09;;;13.99;79.15
79671;BME280;69137;50.878;8.050;2023-09-30T09:55:10;99436.38;;;14.27;79.26
79671;BME280;69137;50.878;8.050;2023-09-30T09:57:35;99439.75;;;14.45;76.44
79671;BME280;69137;50.878;8.050;2023-09-30T10:00:02;99434.28;;;14.50;76.06
79671;BME280;69137;50.878;8.050;2023-09-30T10:02:32;99443.19;;;14.62;75.15
79671;BME280;69137;50.878;8.050;2023-09-30T10:04:58;99447.88;;;14.67;75.67
79671;BME280;69137;50.878;8.050;2023-09-30T10:07:30;99444.38;;;14.81;74.66
79671;BME280;69137;50.878;8.050;2023-09-30T10:10:00;99448.44;;;14.69;76.26
79671;BME280;69137;50.878;8.050;2023-09-30T10:12:26;99456.38;;;14.60;75.66
79671;BME280;69137;50.878;8.050;2023-09-30T10:14:52;99444.06;;;14.30;75.95
79671;BME280;69137;50.878;8.050;2023-09-30T10:17:18;99440.03;;;14.06;78.12
79671;BME280;69137;50.878;8.050;2023-09-30T10:20:03;99443.47;;;13.86;77.39
79671;BME280;69137;50.878;8.050;2023-09-30T10:22:29;99439.88;;;13.85;77.84
79671;BME280;69137;50.878;8.050;2023-09-30T10:25:01;99438.56;;;13.93;77.77
79671;BME280;69137;50.878;8.050;2023-09-30T10:30:08;99422.16;;;14.03;77.41
79671;BME280;69137;50.878;8.050;2023-09-30T10:33:07;99424.22;;;14.23;76.18
79671;BME280;69137;50.878;8.050;2023-09-30T10:40:50;99439.47;;;14.99;73.59
79671;BME280;69137;50.878;8.050;2023-09-30T10:43:33;99442.53;;;14.97;73.27
79671;BME280;69137;50.878;8.050;2023-09-30T10:48:53;99449.13;;;15.01;73.50
79671;BME280;69137;50.878;8.050;2023-09-30T10:51:19;99461.59;;;15.24;71.96
79671;BME280;69137;50.878;8.050;2023-09-30T10:53:53;99447.28;;;15.33;71.06
79671;BME280;69137;50.878;8.050;2023-09-30T10:56:22;99444.56;;;15.48;72.11
79671;BME280;69137;50.878;8.050;2023-09-30T10:58:52;99438.53;;;15.61;70.32
79671;BME280;69137;50.878;8.050;2023-09-30T11:01:20;99436.88;;;15.60;71.48
79671;BME280;69137;50.878;8.050;2023-09-30T11:03:46;99429.16;;;15.52;68.62
79671;BME280;69137;50.878;8.050;2023-09-30T11:06:13;99423.72;;;15.72;69.08
79671;BME280;69137;50.878;8.050;2023-09-30T11:08:55;99431.13;;;15.92;67.29
79671;BME280;69137;50.878;8.050;2023-09-30T11:13:58;99434.94;;;15.61;66.34
79671;BME280;69137;50.878;8.050;2023-09-30T11:16:23;99428.31;;;15.36;65.77
79671;BME280;69137;50.878;8.050;2023-09-30T11:18:53;99435.22;;;15.39;65.72
79671;BME280;69137;50.878;8.050;2023-09-30T11:21:18;99441.81;;;15.53;65.27
79671;BME280;69137;50.878;8.050;2023-09-30T11:23:44;99444.31;;;15.65;63.97
79671;BME280;69137;50.878;8.050;2023-09-30T11:26:09;99441.31;;;15.87;63.55
79671;BME280;69137;50.878;8.050;2023-09-30T11:28:43;99426.72;;;16.02;62.69
79671;BME280;69137;50.878;8.050;2023-09-30T11:31:11;99422.34;;;15.96;60.84
79671;BME280;69137;50.878;8.050;2023-09-30T11:33:53;99422.03;;;16.07;60.74
79671;BME280;69137;50.878;8.050;2023-09-30T11:36:20;99411.72;;;16.59;60.39
79671;BME280;69137;50.878;8.050;2023-09-30T11:38:47;99401.22;;;16.61;60.03
79671;BME280;69137;50.878;8.050;2023-09-30T11:41:13;99398.97;;;16.73;59.10
79671;BME280;69137;50.878;8.050;2023-09-30T11:43:39;99397.91;;;16.64;58.38
79671;BME280;69137;50.878;8.050;2023-09-30T11:48:31;99400.69;;;16.54;57.98
79671;BME280;69137;50.878;8.050;2023-09-30T11:50:58;99394.41;;;16.43;56.18
79671;BME280;69137;50.878;8.050;2023-09-30T11:53:25;99392.53;;;16.08;58.45
79671;BME280;69137;50.878;8.050;2023-09-30T11:55:51;99385.94;;;16.14;60.12
79671;BME280;69137;50.878;8.050;2023-09-30T11:58:20;99377.84;;;16.38;60.16
79671;BME280;69137;50.878;8.050;2023-09-30T12:00:45;99377.78;;;16.58;59.24
79671;BME280;69137;50.878;8.050;2023-09-30T12:03:11;99383.00;;;16.65;58.77
79671;BME280;69137;50.878;8.050;2023-09-30T12:05:36;99386.09;;;16.53;58.56
79671;BME280;69137;50.878;8.050;2023-09-30T12:08:02;99380.81;;;16.62;59.30
79671;BME280;69137;50.878;8.050;2023-09-30T12:10:27;99382.31;;;16.99;61.43
79671;BME280;69137;50.878;8.050;2023-09-30T12:12:53;99379.78;;;17.08;58.14
79671;BME280;69137;50.878;8.050;2023-09-30T12:15:18;99379.25;;;17.06;57.34
79671;BME280;69137;50.878;8.050;2023-09-30T12:17:47;99387.53;;;17.06;57.33
79671;BME280;69137;50.878;8.050;2023-09-30T12:20:12;99384.25;;;16.98;56.24
79671;BME280;69137;50.878;8.050;2023-09-30T12:22:42;99383.13;;;17.05;54.21
79671;BME280;69137;50.878;8.050;2023-09-30T12:25:08;99385.91;;;16.99;55.08
79671;BME280;69137;50.878;8.050;2023-09-30T12:27:34;99379.75;;;17.18;56.25
79671;BME280;69137;50.878;8.050;2023-09-30T12:29:59;99378.03;;;17.61;56.08
79671;BME280;69137;50.878;8.050;2023-09-30T12:32:29;99382.38;;;17.73;55.60
79671;BME280;69137;50.878;8.050;2023-09-30T12:34:55;99378.22;;;17.75;54.56
79671;BME280;69137;50.878;8.050;2023-09-30T12:37:20;99374.63;;;17.80;54.70
79671;BME280;69137;50.878;8.050;2023-09-30T12:39:46;99377.38;;;17.75;54.83
79671;BME280;69137;50.878;8.050;2023-09-30T12:42:11;99378.09;;;17.56;56.10
79671;BME280;69137;50.878;8.050;2023-09-30T12:44:38;99379.22;;;17.50;56.88
79671;BME280;69137;50.878;8.050;2023-09-30T12:47:04;99377.63;;;17.44;56.77
79671;BME280;69137;50.878;8.050;2023-09-30T12:49:30;99379.94;;;17.27;57.51
79671;BME280;69137;50.878;8.050;2023-09-30T12:51:57;99371.69;;;17.21;57.81
79671;BME280;69137;50.878;8.050;2023-09-30T12:54:24;99366.75;;;17.18;56.77
79671;BME280;69137;50.878;8.050;2023-09-30T12:56:50;99356.38;;;17.39;55.93
79671;BME280;69137;50.878;8.050;2023-09-30T12:59:16;99360.84;;;17.30;55.50
79671;BME280;69137;50.878;8.050;2023-09-30T13:01:43;99345.34;;;17.39;55.84
79671;BME280;69137;50.878;8.050;2023-09-30T13:04:08;99351.94;;;17.43;55.57
79671;BME280;69137;50.878;8.050;2023-09-30T13:06:34;99341.44;;;17.40;56.70
79671;BME280;69137;50.878;8.050;2023-09-30T13:09:03;99334.72;;;17.57;55.09
79671;BME280;69137;50.878;8.050;2023-09-30T13:11:30;99324.66;;;17.66;55.79
79671;BME280;69137;50.878;8.050;2023-09-30T13:13:55;99321.28;;;17.74;55.33
79671;BME280;69137;50.878;8.050;2023-09-30T13:16:21;99331.69;;;17.53;54.76